createdAt,value
2017-08-09T00:00:07.481Z,22.2
2017-08-09T00:05:13.376Z,22.1
2017-08-09T00:10:05.089Z,22.1
2017-08-09T00:15:05.407Z,22.1
2017-08-09T00:20:05.780Z,22.1
2017-08-09T00:25:10.128Z,22
2017-08-09T00:30:02.839Z,22
2017-08-09T00:35:05.155Z,22
2017-08-09T00:40:10.158Z,22
2017-08-09T00:45:07.965Z,21.9
2017-08-09T00:50:05.277Z,21.9
2017-08-09T00:55:03.049Z,21.9
2017-08-09T01:00:12.927Z,20.2
2017-08-09T01:05:05.160Z,21.8
2017-08-09T01:10:02.414Z,21.8
2017-08-09T01:15:11.072Z,21.7
2017-08-09T01:20:07.966Z,21.7
2017-08-09T01:25:10.338Z,21.6
2017-08-09T01:30:08.170Z,21.5
2017-08-09T01:35:07.981Z,21.4
2017-08-09T01:40:15.905Z,21.3
2017-08-09T01:45:05.166Z,21.1
2017-08-09T01:50:05.526Z,20.9
2017-08-09T01:55:08.358Z,20.7
2017-08-09T02:00:08.165Z,20.6
2017-08-09T02:05:05.464Z,20.5
2017-08-09T02:10:02.632Z,20.5
2017-08-09T02:15:02.423Z,20.5
2017-08-09T02:20:03.261Z,20.4
2017-08-09T02:25:02.977Z,20.2
2017-08-09T02:30:20.425Z,20.1
2017-08-09T02:35:05.687Z,20
2017-08-09T02:40:10.475Z,20
2017-08-09T02:45:05.734Z,20
2017-08-09T02:50:10.111Z,19.9
2017-08-09T02:55:05.372Z,19.9
2017-08-09T03:00:08.234Z,19.8
2017-08-09T03:05:05.539Z,19.8
2017-08-09T03:10:02.803Z,19.8
2017-08-09T03:15:05.109Z,19.7
2017-08-09T03:20:02.915Z,19.7
2017-08-09T03:25:05.213Z,19.6
2017-08-09T03:30:02.943Z,19.6
2017-08-09T03:35:05.262Z,19.6
2017-08-09T03:40:02.461Z,19.5
2017-08-09T03:45:13.332Z,19.5
2017-08-09T03:50:05.609Z,19.4
2017-08-09T03:55:07.434Z,19.4
2017-08-09T04:00:03.159Z,19.4
2017-08-09T04:05:02.902Z,19.4
2017-08-09T04:10:05.765Z,19.3
2017-08-09T04:15:02.484Z,19.3
2017-08-09T04:20:03.256Z,19.2
2017-08-09T04:25:02.995Z,19.2
2017-08-09T04:30:02.734Z,19.2
2017-08-09T04:35:02.483Z,19.1
2017-08-09T04:40:02.753Z,19.1
2017-08-09T04:45:12.640Z,19
2017-08-09T04:50:12.527Z,19.1
2017-08-09T04:55:03.298Z,19.1
2017-08-09T05:00:05.611Z,19.1
2017-08-09T05:05:04.972Z,19.1
2017-08-09T05:10:05.801Z,19.2
2017-08-09T05:15:07.638Z,19.2
2017-08-09T05:20:04.972Z,19.3
2017-08-09T05:25:12.856Z,19.4
2017-08-09T05:30:05.118Z,19.5
2017-08-09T05:35:13.004Z,19.5
2017-08-09T05:40:05.779Z,19.6
2017-08-09T05:45:10.153Z,19.6
2017-08-09T05:50:02.903Z,19.6
2017-08-09T05:55:02.672Z,19.7
2017-08-09T06:00:02.452Z,19.7
2017-08-09T06:05:05.766Z,19.7
2017-08-09T06:10:05.452Z,19.8
2017-08-09T06:15:13.382Z,19.8
2017-08-09T06:20:03.208Z,19.8
2017-08-09T06:25:03.021Z,19.8
2017-08-09T06:30:05.901Z,20
2017-08-09T06:35:02.652Z,20
2017-08-09T06:40:02.893Z,20.2
2017-08-09T06:45:02.651Z,20.3
2017-08-09T06:50:02.410Z,20.3
2017-08-09T06:55:08.249Z,20.3
2017-08-09T07:00:18.212Z,20.4
2017-08-09T07:05:02.924Z,20.4
2017-08-09T07:10:03.258Z,20.5
2017-08-09T07:15:03.003Z,20.5
2017-08-09T07:20:02.852Z,20.5
2017-08-09T07:25:02.592Z,20.6
2017-08-09T07:30:03.358Z,20.7
2017-08-09T07:35:03.103Z,20.8
2017-08-09T07:40:03.332Z,20.7
2017-08-09T07:45:05.625Z,20.7
2017-08-09T07:50:02.356Z,20.7
2017-08-09T07:55:05.656Z,20.9
2017-08-09T08:00:04.940Z,20.9
2017-08-09T08:05:02.694Z,21
2017-08-09T08:10:02.878Z,20.9
2017-08-09T08:15:02.665Z,21.1
2017-08-09T08:20:02.545Z,21.2
2017-08-09T08:25:03.305Z,21.2
2017-08-09T08:30:05.603Z,21.2
2017-08-09T08:35:07.441Z,21.2
2017-08-09T08:40:05.191Z,21.3
2017-08-09T08:45:02.973Z,21.3
2017-08-09T08:50:02.710Z,21.4
2017-08-09T08:55:05.010Z,21.5
2017-08-09T09:00:23.024Z,21.5
2017-08-09T09:05:05.303Z,21.6
2017-08-09T09:10:10.402Z,21.8
2017-08-09T09:15:05.671Z,22
2017-08-09T09:20:05.045Z,22.2
2017-08-09T09:25:05.336Z,22.3
2017-08-09T09:30:05.644Z,22.4
2017-08-09T09:35:10.016Z,22.4
2017-08-09T09:40:03.228Z,22.4
2017-08-09T09:45:10.589Z,22.6
2017-08-09T09:50:04.862Z,22.8
2017-08-09T09:55:12.730Z,22.9
2017-08-09T10:00:02.472Z,22.9
2017-08-09T10:05:05.823Z,22.8
2017-08-09T10:10:03.009Z,22.7
2017-08-09T10:15:07.807Z,23.1
2017-08-09T10:20:05.165Z,23.3
2017-08-09T10:25:05.433Z,23.3
2017-08-09T10:30:10.773Z,23.3
2017-08-09T10:35:02.511Z,23.3
2017-08-09T10:40:05.292Z,23.7
2017-08-09T10:45:05.615Z,24
2017-08-09T10:50:02.380Z,24
2017-08-09T10:55:05.692Z,24.4
2017-08-09T11:00:20.197Z,24.3
2017-08-09T11:05:05.513Z,24.3
2017-08-09T11:10:02.773Z,24.3
2017-08-09T11:15:05.085Z,24.6
2017-08-09T11:20:02.945Z,24.6
2017-08-09T11:25:05.245Z,24.9
2017-08-09T11:30:05.595Z,25
2017-08-09T11:35:10.937Z,25.2
2017-08-09T11:40:05.731Z,25.3
2017-08-09T11:45:02.501Z,25.2
2017-08-09T11:50:08.321Z,25.4
2017-08-09T11:55:03.070Z,25.4
2017-08-09T12:00:07.927Z,25.6
2017-08-09T12:05:10.287Z,25.8
2017-08-09T12:10:02.481Z,25.8
2017-08-09T12:15:05.763Z,26.1
2017-08-09T12:20:02.583Z,26.1
2017-08-09T12:25:03.350Z,26.2
2017-08-09T12:30:05.678Z,26.4
2017-08-09T12:35:07.519Z,26.6
2017-08-09T12:40:17.930Z,26.8
2017-08-09T12:45:02.661Z,26.8
2017-08-09T12:50:10.017Z,27
2017-08-09T12:55:10.433Z,27.1
2017-08-09T13:00:03.171Z,27.1
2017-08-09T13:05:02.934Z,27.3
2017-08-09T13:10:05.712Z,27.7
2017-08-09T13:15:02.455Z,27.7
2017-08-09T13:20:08.361Z,27.6
2017-08-09T13:25:13.227Z,27.9
2017-08-09T13:30:10.544Z,28.6
2017-08-09T13:35:05.814Z,30
2017-08-09T13:40:05.577Z,31.7
2017-08-09T13:45:03.331Z,31.6
2017-08-09T13:50:05.673Z,33.9
2017-08-09T13:55:02.429Z,33.8
2017-08-09T14:00:05.740Z,37.1
2017-08-09T14:05:05.008Z,37
2017-08-09T14:10:05.805Z,37.1
2017-08-09T14:15:02.543Z,37.1
2017-08-09T14:20:02.427Z,35.1
2017-08-09T14:25:10.781Z,31.8
2017-08-09T14:30:02.504Z,31.8
2017-08-09T14:35:03.272Z,31.1
2017-08-09T14:40:05.058Z,30.7
2017-08-09T14:45:02.795Z,30.7
2017-08-09T14:50:02.554Z,30.5
2017-08-09T14:55:08.390Z,30.2
2017-08-09T15:00:10.736Z,30
2017-08-09T15:05:02.461Z,30
2017-08-09T15:10:05.191Z,30
2017-08-09T15:15:10.538Z,29.8
2017-08-09T15:20:02.364Z,29.8
2017-08-09T15:25:05.655Z,29.7
2017-08-09T15:30:02.387Z,29.6
2017-08-09T15:35:03.168Z,29.4
2017-08-09T15:40:07.464Z,29.3
2017-08-09T15:45:03.209Z,29.3
2017-08-09T15:50:02.992Z,29.2
2017-08-09T15:55:02.761Z,29.2
2017-08-09T16:00:02.556Z,29.3
2017-08-09T16:05:18.471Z,29.1
2017-08-09T16:10:12.812Z,29
2017-08-09T16:15:05.134Z,29.1
2017-08-09T16:20:02.912Z,29.1
2017-08-09T16:25:05.234Z,29.4
2017-08-09T16:30:08.064Z,29.3
2017-08-09T16:35:05.334Z,29.1
2017-08-09T16:40:05.107Z,29.1
2017-08-09T16:45:02.823Z,29.1
2017-08-09T16:50:10.155Z,28.9
2017-08-09T16:55:05.433Z,28.6
2017-08-09T17:00:03.235Z,28.6
2017-08-09T17:05:03.003Z,28.5
2017-08-09T17:10:03.215Z,28.4
2017-08-09T17:15:08.042Z,28.2
2017-08-09T17:20:05.387Z,27.9
2017-08-09T17:25:05.844Z,27.8
2017-08-09T17:30:07.824Z,27.6
2017-08-09T17:35:05.079Z,27.5
2017-08-09T17:40:03.339Z,27.5
2017-08-09T17:45:03.107Z,27.5
2017-08-09T17:50:07.947Z,27.2
2017-08-09T17:55:05.223Z,27.1
2017-08-09T18:00:05.522Z,26.9
2017-08-09T18:05:03.271Z,26.9
2017-08-09T18:10:05.058Z,26.5
2017-08-09T18:15:02.829Z,26.5
2017-08-09T18:20:05.190Z,25.9
2017-08-09T18:25:05.463Z,25.8
2017-08-09T18:30:03.214Z,25.8
2017-08-09T18:35:02.996Z,25.7
2017-08-09T18:40:05.837Z,25.3
2017-08-09T18:45:02.558Z,25.3
2017-08-09T18:50:08.396Z,25
2017-08-09T18:55:03.148Z,25
2017-08-09T19:00:07.980Z,24.8
2017-08-09T19:05:10.337Z,24.6
2017-08-09T19:10:02.525Z,24.6
2017-08-09T19:15:03.287Z,24.6
2017-08-09T19:20:03.181Z,24.5
2017-08-09T19:25:05.510Z,24.2
2017-08-09T19:30:10.923Z,24
2017-08-09T19:35:02.664Z,24
2017-08-09T19:40:10.516Z,23.9
2017-08-09T19:45:10.875Z,23.7
2017-08-09T19:50:10.155Z,23.6
2017-08-09T19:55:02.909Z,23.6
2017-08-09T20:00:07.743Z,23.5
2017-08-09T20:05:02.497Z,23.5
2017-08-09T20:10:02.736Z,23.5
2017-08-09T20:15:02.489Z,23.3
2017-08-09T20:20:03.349Z,23.2
2017-08-09T20:25:03.076Z,23.1
2017-08-09T20:30:05.388Z,22.9
2017-08-09T20:35:05.668Z,22.8
2017-08-09T20:40:02.886Z,22.8
2017-08-09T20:45:02.652Z,22.8
2017-08-09T20:50:02.384Z,22.7
2017-08-09T20:55:03.169Z,22.6
2017-08-09T21:00:02.904Z,22.6
2017-08-09T21:05:05.238Z,22.4
2017-08-09T21:10:02.441Z,22.5
2017-08-09T21:15:03.238Z,22.4
2017-08-09T21:20:15.719Z,22.3
2017-08-09T21:25:02.468Z,22.2
2017-08-09T21:30:05.742Z,22.2
2017-08-09T21:35:25.277Z,22.2
2017-08-09T21:40:02.491Z,22.1
2017-08-09T21:45:10.857Z,22.1
2017-08-09T21:50:02.589Z,22.1
2017-08-09T21:55:12.515Z,22
2017-08-09T22:00:03.251Z,22
2017-08-09T22:05:03.069Z,22
2017-08-09T22:10:08.390Z,21.8
2017-08-09T22:15:05.688Z,21.9
2017-08-09T22:20:02.515Z,21.9
2017-08-09T22:25:10.878Z,21.9
2017-08-09T22:30:10.213Z,21.8
2017-08-09T22:35:02.981Z,21.8
2017-08-09T22:40:05.786Z,21.8
2017-08-09T22:45:05.096Z,21.8
2017-08-09T22:50:07.928Z,21.7
2017-08-09T22:55:05.192Z,21.6
2017-08-09T23:00:02.938Z,21.6
2017-08-09T23:05:07.760Z,21.5
2017-08-09T23:10:05.543Z,21.5
2017-08-09T23:15:08.406Z,21.4
2017-08-09T23:20:03.258Z,21.5
2017-08-09T23:25:05.586Z,21.5
2017-08-09T23:30:03.308Z,21.4
2017-08-09T23:35:03.059Z,21.4
2017-08-09T23:40:10.891Z,21.3
2017-08-09T23:45:05.159Z,21.2
2017-08-09T23:50:03.000Z,21.2
2017-08-09T23:55:05.310Z,21
